Terminal Aerodrome Forecast
Issued by NWS

Home | Current Version | Previous Version | Text Only | Print | Product List | Glossary On
Versions: 1 2 3 4 5 6 7 8 9 10 11 12 13 14 15 16 17 18 19 20
000
FTUS43 KAPX 050530
TAFMBL
TAF
KMBL 050530Z 0506/0606 VRB03KT 5SM BR SCT006 OVC008
     FM050900 27011KT P6SM OVC010
     FM051200 26013G23KT P6SM OVC015
     FM051600 26008KT P6SM BKN020
     FM051800 21006KT P6SM BKN035
     FM052100 18010G18KT P6SM BKN030
     FM060300 16007KT P6SM OVC060=

USA.gov is the U.S. government's official web portal to all federal, state and local government web resources and services.